sensor_id;sensor_type;location;lat;lon;timestamp;P1;durP1;ratioP1;P2;durP2;ratioP2
3293;SDS011;1659;51.470;6.770;2022-09-09T00:00:15;5.73;;;2.77;;
3293;SDS011;1659;51.470;6.770;2022-09-09T00:02:44;4.90;;;2.73;;
3293;SDS011;1659;51.470;6.770;2022-09-09T00:05:22;7.40;;;2.90;;
3293;SDS011;1659;51.470;6.770;2022-09-09T00:07:57;6.77;;;3.43;;
3293;SDS011;1659;51.470;6.770;2022-09-09T00:10:27;6.80;;;4.00;;
3293;SDS011;1659;51.470;6.770;2022-09-09T00:12:57;6.20;;;3.97;;
3293;SDS011;1659;51.470;6.770;2022-09-09T00:15:33;6.03;;;2.67;;
3293;SDS011;1659;51.470;6.770;2022-09-09T00:18:12;4.10;;;3.13;;
3293;SDS011;1659;51.470;6.770;2022-09-09T00:20:49;3.37;;;3.03;;
3293;SDS011;1659;51.470;6.770;2022-09-09T00:23:24;4.80;;;3.07;;
3293;SDS011;1659;51.470;6.770;2022-09-09T00:25:54;4.10;;;2.70;;
3293;SDS011;1659;51.470;6.770;2022-09-09T00:28:28;2.60;;;2.40;;
3293;SDS011;1659;51.470;6.770;2022-09-09T00:30:59;2.20;;;2.00;;
3293;SDS011;1659;51.470;6.770;2022-09-09T00:33:35;6.53;;;2.33;;
3293;SDS011;1659;51.470;6.770;2022-09-09T00:36:07;9.30;;;2.27;;
3293;SDS011;1659;51.470;6.770;2022-09-09T00:38:39;2.00;;;1.40;;
3293;SDS011;1659;51.470;6.770;2022-09-09T00:41:11;4.70;;;2.60;;
3293;SDS011;1659;51.470;6.770;2022-09-09T00:43:44;3.63;;;2.00;;
3293;SDS011;1659;51.470;6.770;2022-09-09T00:46:32;3.50;;;2.10;;
3293;SDS011;1659;51.470;6.770;2022-09-09T00:49:13;3.93;;;1.80;;
3293;SDS011;1659;51.470;6.770;2022-09-09T00:51:48;4.97;;;2.90;;
3293;SDS011;1659;51.470;6.770;2022-09-09T00:54:28;2.30;;;1.73;;
3293;SDS011;1659;51.470;6.770;2022-09-09T00:57:07;3.80;;;1.80;;
3293;SDS011;1659;51.470;6.770;2022-09-09T00:59:45;2.93;;;1.80;;
3293;SDS011;1659;51.470;6.770;2022-09-09T01:02:16;2.20;;;2.10;;
3293;SDS011;1659;51.470;6.770;2022-09-09T01:04:51;2.80;;;2.60;;
3293;SDS011;1659;51.470;6.770;2022-09-09T01:07:20;4.27;;;2.60;;
3293;SDS011;1659;51.470;6.770;2022-09-09T01:09:51;5.53;;;2.67;;
3293;SDS011;1659;51.470;6.770;2022-09-09T01:12:26;2.13;;;2.00;;
3293;SDS011;1659;51.470;6.770;2022-09-09T01:15:07;2.97;;;2.57;;
3293;SDS011;1659;51.470;6.770;2022-09-09T01:17:44;3.20;;;2.63;;
3293;SDS011;1659;51.470;6.770;2022-09-09T01:20:17;5.60;;;2.50;;
3293;SDS011;1659;51.470;6.770;2022-09-09T01:22:56;4.47;;;2.60;;
3293;SDS011;1659;51.470;6.770;2022-09-09T01:26:02;2.70;;;2.23;;
3293;SDS011;1659;51.470;6.770;2022-09-09T01:28:36;4.43;;;3.00;;
3293;SDS011;1659;51.470;6.770;2022-09-09T01:31:05;4.53;;;3.00;;
3293;SDS011;1659;51.470;6.770;2022-09-09T01:33:35;2.87;;;2.67;;
3293;SDS011;1659;51.470;6.770;2022-09-09T01:36:02;3.47;;;3.17;;
3293;SDS011;1659;51.470;6.770;2022-09-09T01:38:34;4.47;;;3.30;;
3293;SDS011;1659;51.470;6.770;2022-09-09T01:41:03;6.57;;;3.13;;
3293;SDS011;1659;51.470;6.770;2022-09-09T01:43:30;6.23;;;3.60;;
3293;SDS011;1659;51.470;6.770;2022-09-09T01:45:58;3.83;;;3.50;;
3293;SDS011;1659;51.470;6.770;2022-09-09T01:48:27;13.93;;;3.60;;
3293;SDS011;1659;51.470;6.770;2022-09-09T01:50:54;4.00;;;3.60;;
3293;SDS011;1659;51.470;6.770;2022-09-09T01:53:22;4.13;;;3.27;;
3293;SDS011;1659;51.470;6.770;2022-09-09T01:55:57;5.30;;;2.93;;
3293;SDS011;1659;51.470;6.770;2022-09-09T01:58:37;4.07;;;3.00;;
3293;SDS011;1659;51.470;6.770;2022-09-09T02:01:17;3.13;;;2.83;;
3293;SDS011;1659;51.470;6.770;2022-09-09T02:03:53;3.70;;;2.97;;
3293;SDS011;1659;51.470;6.770;2022-09-09T02:06:25;5.20;;;3.50;;
3293;SDS011;1659;51.470;6.770;2022-09-09T02:08:55;5.10;;;3.40;;
3293;SDS011;1659;51.470;6.770;2022-09-09T02:11:26;5.20;;;2.73;;
3293;SDS011;1659;51.470;6.770;2022-09-09T02:13:55;4.43;;;3.20;;
3293;SDS011;1659;51.470;6.770;2022-09-09T02:16:26;4.63;;;2.57;;
3293;SDS011;1659;51.470;6.770;2022-09-09T02:18:57;3.63;;;3.03;;
3293;SDS011;1659;51.470;6.770;2022-09-09T02:21:30;3.30;;;2.50;;
3293;SDS011;1659;51.470;6.770;2022-09-09T02:24:00;3.00;;;2.70;;
3293;SDS011;1659;51.470;6.770;2022-09-09T02:26:31;6.20;;;3.57;;
3293;SDS011;1659;51.470;6.770;2022-09-09T02:29:01;7.20;;;3.63;;
3293;SDS011;1659;51.470;6.770;2022-09-09T02:31:31;6.07;;;3.03;;
3293;SDS011;1659;51.470;6.770;2022-09-09T02:34:01;5.17;;;2.73;;
3293;SDS011;1659;51.470;6.770;2022-09-09T02:36:32;3.47;;;2.50;;
3293;SDS011;1659;51.470;6.770;2022-09-09T02:39:00;9.97;;;3.20;;
3293;SDS011;1659;51.470;6.770;2022-09-09T02:41:28;3.27;;;2.97;;
3293;SDS011;1659;51.470;6.770;2022-09-09T02:44:00;4.77;;;2.73;;
3293;SDS011;1659;51.470;6.770;2022-09-09T02:46:31;6.40;;;3.23;;
3293;SDS011;1659;51.470;6.770;2022-09-09T02:49:08;3.30;;;2.93;;
3293;SDS011;1659;51.470;6.770;2022-09-09T02:51:40;4.47;;;2.90;;
3293;SDS011;1659;51.470;6.770;2022-09-09T02:54:16;3.63;;;2.27;;
3293;SDS011;1659;51.470;6.770;2022-09-09T02:56:53;5.20;;;2.27;;
3293;SDS011;1659;51.470;6.770;2022-09-09T02:59:21;4.23;;;2.47;;
3293;SDS011;1659;51.470;6.770;2022-09-09T03:01:49;4.50;;;2.70;;
3293;SDS011;1659;51.470;6.770;2022-09-09T03:04:15;3.40;;;2.40;;
3293;SDS011;1659;51.470;6.770;2022-09-09T03:06:42;6.90;;;3.03;;
3293;SDS011;1659;51.470;6.770;2022-09-09T03:09:09;2.40;;;2.20;;
3293;SDS011;1659;51.470;6.770;2022-09-09T03:11:36;5.83;;;2.83;;
3293;SDS011;1659;51.470;6.770;2022-09-09T03:14:04;3.60;;;2.33;;
3293;SDS011;1659;51.470;6.770;2022-09-09T03:16:31;4.47;;;2.47;;
3293;SDS011;1659;51.470;6.770;2022-09-09T03:18:59;3.13;;;2.30;;
3293;SDS011;1659;51.470;6.770;2022-09-09T03:21:25;4.30;;;2.43;;
3293;SDS011;1659;51.470;6.770;2022-09-09T03:23:52;7.03;;;2.67;;
3293;SDS011;1659;51.470;6.770;2022-09-09T03:26:19;4.60;;;2.90;;
3293;SDS011;1659;51.470;6.770;2022-09-09T03:28:46;12.27;;;3.40;;
3293;SDS011;1659;51.470;6.770;2022-09-09T03:31:14;2.93;;;2.23;;
3293;SDS011;1659;51.470;6.770;2022-09-09T03:33:40;5.53;;;3.10;;
3293;SDS011;1659;51.470;6.770;2022-09-09T03:36:07;7.30;;;2.43;;
3293;SDS011;1659;51.470;6.770;2022-09-09T03:38:35;5.50;;;2.67;;
3293;SDS011;1659;51.470;6.770;2022-09-09T03:41:02;7.20;;;2.80;;
3293;SDS011;1659;51.470;6.770;2022-09-09T03:43:31;3.80;;;3.13;;
3293;SDS011;1659;51.470;6.770;2022-09-09T03:45:57;3.90;;;2.87;;
3293;SDS011;1659;51.470;6.770;2022-09-09T03:48:25;3.63;;;2.27;;
3293;SDS011;1659;51.470;6.770;2022-09-09T03:50:53;10.00;;;3.67;;
3293;SDS011;1659;51.470;6.770;2022-09-09T03:53:22;4.00;;;3.20;;
3293;SDS011;1659;51.470;6.770;2022-09-09T03:55:50;5.33;;;2.80;;
3293;SDS011;1659;51.470;6.770;2022-09-09T03:58:19;3.00;;;2.70;;
3293;SDS011;1659;51.470;6.770;2022-09-09T04:00:52;6.67;;;3.07;;
3293;SDS011;1659;51.470;6.770;2022-09-09T04:03:20;7.73;;;3.20;;
3293;SDS011;1659;51.470;6.770;2022-09-09T04:05:49;5.00;;;3.00;;
3293;SDS011;1659;51.470;6.770;2022-09-09T04:08:16;9.30;;;3.00;;
3293;SDS011;1659;51.470;6.770;2022-09-09T04:10:44;4.60;;;2.93;;
3293;SDS011;1659;51.470;6.770;2022-09-09T04:13:11;6.40;;;3.40;;
3293;SDS011;1659;51.470;6.770;2022-09-09T04:15:41;4.07;;;3.10;;
3293;SDS011;1659;51.470;6.770;2022-09-09T04:18:08;3.83;;;2.77;;
3293;SDS011;1659;51.470;6.770;2022-09-09T04:20:34;8.73;;;4.07;;
3293;SDS011;1659;51.470;6.770;2022-09-09T04:23:02;8.50;;;3.50;;
3293;SDS011;1659;51.470;6.770;2022-09-09T04:25:29;6.73;;;2.43;;
3293;SDS011;1659;51.470;6.770;2022-09-09T04:27:56;3.67;;;2.87;;
3293;SDS011;1659;51.470;6.770;2022-09-09T04:30:23;8.83;;;3.27;;
3293;SDS011;1659;51.470;6.770;2022-09-09T04:32:52;8.10;;;2.70;;
3293;SDS011;1659;51.470;6.770;2022-09-09T04:35:19;11.17;;;3.73;;
3293;SDS011;1659;51.470;6.770;2022-09-09T04:37:46;6.60;;;2.90;;
3293;SDS011;1659;51.470;6.770;2022-09-09T04:40:15;11.30;;;4.40;;
3293;SDS011;1659;51.470;6.770;2022-09-09T04:42:41;10.77;;;3.90;;
3293;SDS011;1659;51.470;6.770;2022-09-09T04:45:09;9.90;;;4.10;;
3293;SDS011;1659;51.470;6.770;2022-09-09T04:47:38;8.83;;;2.97;;
3293;SDS011;1659;51.470;6.770;2022-09-09T04:50:05;7.70;;;3.63;;
3293;SDS011;1659;51.470;6.770;2022-09-09T04:52:33;9.20;;;3.40;;
3293;SDS011;1659;51.470;6.770;2022-09-09T04:55:00;6.00;;;3.63;;
3293;SDS011;1659;51.470;6.770;2022-09-09T04:57:28;5.93;;;2.97;;
3293;SDS011;1659;51.470;6.770;2022-09-09T04:59:56;6.73;;;4.20;;
3293;SDS011;1659;51.470;6.770;2022-09-09T05:02:23;5.97;;;3.07;;
3293;SDS011;1659;51.470;6.770;2022-09-09T05:04:49;5.77;;;3.20;;
3293;SDS011;1659;51.470;6.770;2022-09-09T05:07:16;3.93;;;3.47;;
3293;SDS011;1659;51.470;6.770;2022-09-09T05:09:44;3.47;;;2.60;;
3293;SDS011;1659;51.470;6.770;2022-09-09T05:12:11;7.00;;;3.50;;
3293;SDS011;1659;51.470;6.770;2022-09-09T05:14:39;6.03;;;3.57;;
3293;SDS011;1659;51.470;6.770;2022-09-09T05:17:06;7.13;;;3.27;;
3293;SDS011;1659;51.470;6.770;2022-09-09T05:19:32;7.13;;;3.70;;
3293;SDS011;1659;51.470;6.770;2022-09-09T05:21:59;6.20;;;3.47;;
3293;SDS011;1659;51.470;6.770;2022-09-09T05:24:26;10.90;;;4.70;;
3293;SDS011;1659;51.470;6.770;2022-09-09T05:26:53;13.87;;;3.50;;
3293;SDS011;1659;51.470;6.770;2022-09-09T05:29:21;7.63;;;4.03;;
3293;SDS011;1659;51.470;6.770;2022-09-09T05:31:49;7.10;;;4.23;;
3293;SDS011;1659;51.470;6.770;2022-09-09T05:34:15;3.83;;;3.40;;
3293;SDS011;1659;51.470;6.770;2022-09-09T05:36:42;8.00;;;4.30;;
3293;SDS011;1659;51.470;6.770;2022-09-09T05:39:08;7.10;;;2.90;;
3293;SDS011;1659;51.470;6.770;2022-09-09T05:41:37;6.70;;;3.20;;
3293;SDS011;1659;51.470;6.770;2022-09-09T05:44:03;7.57;;;4.00;;
3293;SDS011;1659;51.470;6.770;2022-09-09T05:46:31;8.73;;;3.37;;
3293;SDS011;1659;51.470;6.770;2022-09-09T05:48:59;10.50;;;3.70;;
3293;SDS011;1659;51.470;6.770;2022-09-09T05:51:26;5.47;;;3.37;;
3293;SDS011;1659;51.470;6.770;2022-09-09T05:53:55;6.80;;;3.10;;
3293;SDS011;1659;51.470;6.770;2022-09-09T05:56:24;7.33;;;3.80;;
3293;SDS011;1659;51.470;6.770;2022-09-09T05:58:52;11.67;;;4.00;;
3293;SDS011;1659;51.470;6.770;2022-09-09T06:01:19;10.03;;;3.70;;
3293;SDS011;1659;51.470;6.770;2022-09-09T06:03:48;6.10;;;3.70;;
3293;SDS011;1659;51.470;6.770;2022-09-09T06:06:18;10.80;;;3.60;;
3293;SDS011;1659;51.470;6.770;2022-09-09T06:08:47;10.60;;;4.80;;
3293;SDS011;1659;51.470;6.770;2022-09-09T06:11:16;11.97;;;3.80;;
3293;SDS011;1659;51.470;6.770;2022-09-09T06:13:44;10.17;;;4.00;;
3293;SDS011;1659;51.470;6.770;2022-09-09T06:16:13;5.10;;;3.53;;
3293;SDS011;1659;51.470;6.770;2022-09-09T06:18:43;11.17;;;3.30;;
3293;SDS011;1659;51.470;6.770;2022-09-09T06:21:11;6.20;;;4.07;;
3293;SDS011;1659;51.470;6.770;2022-09-09T06:23:43;5.97;;;3.70;;
3293;SDS011;1659;51.470;6.770;2022-09-09T06:26:11;7.57;;;3.70;;
3293;SDS011;1659;51.470;6.770;2022-09-09T06:28:39;11.53;;;4.03;;
3293;SDS011;1659;51.470;6.770;2022-09-09T06:31:09;7.00;;;3.83;;
3293;SDS011;1659;51.470;6.770;2022-09-09T06:33:37;3.90;;;3.07;;
3293;SDS011;1659;51.470;6.770;2022-09-09T06:36:06;13.10;;;3.43;;
3293;SDS011;1659;51.470;6.770;2022-09-09T06:38:39;13.90;;;4.67;;
3293;SDS011;1659;51.470;6.770;2022-09-09T06:41:07;8.90;;;3.60;;
3293;SDS011;1659;51.470;6.770;2022-09-09T06:43:35;5.10;;;3.33;;
3293;SDS011;1659;51.470;6.770;2022-09-09T06:46:02;9.27;;;3.80;;
3293;SDS011;1659;51.470;6.770;2022-09-09T06:48:30;10.90;;;2.80;;
3293;SDS011;1659;51.470;6.770;2022-09-09T06:51:01;7.87;;;2.87;;
3293;SDS011;1659;51.470;6.770;2022-09-09T06:53:28;14.77;;;3.33;;
3293;SDS011;1659;51.470;6.770;2022-09-09T06:55:58;9.53;;;3.00;;
3293;SDS011;1659;51.470;6.770;2022-09-09T06:58:27;7.87;;;3.50;;
3293;SDS011;1659;51.470;6.770;2022-09-09T07:01:01;6.37;;;2.73;;
3293;SDS011;1659;51.470;6.770;2022-09-09T07:03:28;5.93;;;3.43;;
3293;SDS011;1659;51.470;6.770;2022-09-09T07:05:55;4.20;;;2.90;;
3293;SDS011;1659;51.470;6.770;2022-09-09T07:08:22;9.70;;;2.87;;
3293;SDS011;1659;51.470;6.770;2022-09-09T07:10:50;11.17;;;4.17;;
3293;SDS011;1659;51.470;6.770;2022-09-09T07:13:18;9.80;;;2.80;;
3293;SDS011;1659;51.470;6.770;2022-09-09T07:15:47;4.37;;;2.70;;
3293;SDS011;1659;51.470;6.770;2022-09-09T07:18:13;6.07;;;2.80;;
3293;SDS011;1659;51.470;6.770;2022-09-09T07:20:40;7.50;;;3.17;;
3293;SDS011;1659;51.470;6.770;2022-09-09T07:23:07;11.23;;;3.67;;
3293;SDS011;1659;51.470;6.770;2022-09-09T07:25:33;7.67;;;4.20;;
3293;SDS011;1659;51.470;6.770;2022-09-09T07:28:00;8.20;;;3.80;;
3293;SDS011;1659;51.470;6.770;2022-09-09T07:30:28;10.03;;;5.33;;
3293;SDS011;1659;51.470;6.770;2022-09-09T07:32:56;10.00;;;4.40;;
3293;SDS011;1659;51.470;6.770;2022-09-09T07:35:24;9.50;;;4.40;;
3293;SDS011;1659;51.470;6.770;2022-09-09T07:37:52;4.97;;;3.00;;
3293;SDS011;1659;51.470;6.770;2022-09-09T07:40:18;6.13;;;3.63;;
3293;SDS011;1659;51.470;6.770;2022-09-09T07:42:46;7.30;;;3.07;;
3293;SDS011;1659;51.470;6.770;2022-09-09T07:45:13;8.17;;;2.93;;
3293;SDS011;1659;51.470;6.770;2022-09-09T07:47:40;9.83;;;3.33;;
3293;SDS011;1659;51.470;6.770;2022-09-09T07:50:09;10.10;;;3.27;;
3293;SDS011;1659;51.470;6.770;2022-09-09T07:52:36;6.53;;;3.03;;
3293;SDS011;1659;51.470;6.770;2022-09-09T07:55:03;12.63;;;4.37;;
3293;SDS011;1659;51.470;6.770;2022-09-09T07:57:30;10.53;;;4.17;;
3293;SDS011;1659;51.470;6.770;2022-09-09T07:59:57;8.17;;;4.00;;
3293;SDS011;1659;51.470;6.770;2022-09-09T08:02:24;9.73;;;4.00;;
3293;SDS011;1659;51.470;6.770;2022-09-09T08:04:53;13.43;;;4.70;;
3293;SDS011;1659;51.470;6.770;2022-09-09T08:07:20;6.73;;;3.57;;
3293;SDS011;1659;51.470;6.770;2022-09-09T08:09:48;8.47;;;3.67;;
3293;SDS011;1659;51.470;6.770;2022-09-09T08:12:15;7.60;;;2.83;;
3293;SDS011;1659;51.470;6.770;2022-09-09T08:14:41;3.80;;;2.70;;
3293;SDS011;1659;51.470;6.770;2022-09-09T08:17:08;6.63;;;2.97;;
3293;SDS011;1659;51.470;6.770;2022-09-09T08:19:35;7.37;;;3.13;;
3293;SDS011;1659;51.470;6.770;2022-09-09T08:22:01;5.40;;;2.57;;
3293;SDS011;1659;51.470;6.770;2022-09-09T08:24:30;7.80;;;4.40;;
3293;SDS011;1659;51.470;6.770;2022-09-09T08:26:56;6.43;;;3.07;;
3293;SDS011;1659;51.470;6.770;2022-09-09T08:29:24;4.90;;;3.30;;
3293;SDS011;1659;51.470;6.770;2022-09-09T08:31:51;13.57;;;3.43;;
3293;SDS011;1659;51.470;6.770;2022-09-09T08:34:20;5.40;;;2.70;;
3293;SDS011;1659;51.470;6.770;2022-09-09T08:36:47;6.07;;;3.23;;
3293;SDS011;1659;51.470;6.770;2022-09-09T08:39:16;5.60;;;2.93;;
3293;SDS011;1659;51.470;6.770;2022-09-09T08:41:49;7.33;;;2.40;;
3293;SDS011;1659;51.470;6.770;2022-09-09T08:44:34;3.80;;;2.67;;
3293;SDS011;1659;51.470;6.770;2022-09-09T08:47:10;8.17;;;2.67;;
3293;SDS011;1659;51.470;6.770;2022-09-09T08:49:51;7.10;;;2.87;;
3293;SDS011;1659;51.470;6.770;2022-09-09T08:52:28;7.90;;;1.97;;
3293;SDS011;1659;51.470;6.770;2022-09-09T08:54:59;4.23;;;2.10;;
3293;SDS011;1659;51.470;6.770;2022-09-09T08:57:40;5.63;;;2.63;;
3293;SDS011;1659;51.470;6.770;2022-09-09T09:00:08;2.70;;;1.70;;
3293;SDS011;1659;51.470;6.770;2022-09-09T09:02:38;6.30;;;2.43;;
3293;SDS011;1659;51.470;6.770;2022-09-09T09:05:16;4.40;;;2.00;;
3293;SDS011;1659;51.470;6.770;2022-09-09T09:07:53;3.83;;;1.90;;
3293;SDS011;1659;51.470;6.770;2022-09-09T09:10:34;9.17;;;3.20;;
3293;SDS011;1659;51.470;6.770;2022-09-09T09:13:13;4.63;;;2.53;;
3293;SDS011;1659;51.470;6.770;2022-09-09T09:15:42;8.90;;;2.60;;
3293;SDS011;1659;51.470;6.770;2022-09-09T09:18:14;8.50;;;2.77;;
3293;SDS011;1659;51.470;6.770;2022-09-09T09:20:46;4.30;;;2.40;;
3293;SDS011;1659;51.470;6.770;2022-09-09T09:23:21;2.67;;;2.40;;
3293;SDS011;1659;51.470;6.770;2022-09-09T09:25:49;5.50;;;2.40;;
3293;SDS011;1659;51.470;6.770;2022-09-09T09:28:20;7.33;;;2.83;;
3293;SDS011;1659;51.470;6.770;2022-09-09T09:30:52;8.17;;;2.90;;
3293;SDS011;1659;51.470;6.770;2022-09-09T09:33:23;3.50;;;1.83;;
3293;SDS011;1659;51.470;6.770;2022-09-09T09:35:54;6.60;;;2.43;;
3293;SDS011;1659;51.470;6.770;2022-09-09T09:38:22;4.70;;;2.07;;
3293;SDS011;1659;51.470;6.770;2022-09-09T09:40:50;2.53;;;2.03;;
3293;SDS011;1659;51.470;6.770;2022-09-09T09:43:25;7.93;;;2.40;;
3293;SDS011;1659;51.470;6.770;2022-09-09T09:45:53;6.50;;;1.67;;
3293;SDS011;1659;51.470;6.770;2022-09-09T09:48:23;7.17;;;2.60;;
3293;SDS011;1659;51.470;6.770;2022-09-09T09:50:50;1.87;;;1.50;;
3293;SDS011;1659;51.470;6.770;2022-09-09T09:53:22;3.90;;;2.07;;
3293;SDS011;1659;51.470;6.770;2022-09-09T09:55:54;5.03;;;2.40;;
3293;SDS011;1659;51.470;6.770;2022-09-09T09:58:25;3.23;;;2.10;;
3293;SDS011;1659;51.470;6.770;2022-09-09T10:00:55;2.83;;;2.00;;
3293;SDS011;1659;51.470;6.770;2022-09-09T10:03:23;8.13;;;2.67;;
3293;SDS011;1659;51.470;6.770;2022-09-09T10:05:52;6.10;;;2.57;;
3293;SDS011;1659;51.470;6.770;2022-09-09T10:08:21;5.93;;;2.60;;
3293;SDS011;1659;51.470;6.770;2022-09-09T10:10:51;7.23;;;2.80;;
3293;SDS011;1659;51.470;6.770;2022-09-09T10:13:28;6.10;;;2.97;;
3293;SDS011;1659;51.470;6.770;2022-09-09T10:16:05;2.53;;;2.33;;
3293;SDS011;1659;51.470;6.770;2022-09-09T10:18:48;5.63;;;2.63;;
3293;SDS011;1659;51.470;6.770;2022-09-09T10:21:32;9.03;;;4.43;;
3293;SDS011;1659;51.470;6.770;2022-09-09T10:24:14;5.50;;;3.53;;
3293;SDS011;1659;51.470;6.770;2022-09-09T10:26:58;5.13;;;2.67;;
3293;SDS011;1659;51.470;6.770;2022-09-09T10:32:28;5.60;;;2.63;;
3293;SDS011;1659;51.470;6.770;2022-09-09T10:35:04;8.07;;;2.70;;
3293;SDS011;1659;51.470;6.770;2022-09-09T10:37:41;7.93;;;3.47;;
3293;SDS011;1659;51.470;6.770;2022-09-09T10:40:27;4.13;;;2.80;;
3293;SDS011;1659;51.470;6.770;2022-09-09T10:43:00;4.30;;;3.90;;
3293;SDS011;1659;51.470;6.770;2022-09-09T10:45:37;9.07;;;5.30;;
3293;SDS011;1659;51.470;6.770;2022-09-09T10:48:22;7.37;;;5.80;;
3293;SDS011;1659;51.470;6.770;2022-09-09T10:51:01;7.13;;;3.87;;
3293;SDS011;1659;51.470;6.770;2022-09-09T10:53:41;7.30;;;3.10;;
3293;SDS011;1659;51.470;6.770;2022-09-09T10:56:18;6.43;;;2.27;;
3293;SDS011;1659;51.470;6.770;2022-09-09T10:58:50;9.83;;;2.70;;
3293;SDS011;1659;51.470;6.770;2022-09-09T11:01:23;5.10;;;2.63;;
3293;SDS011;1659;51.470;6.770;2022-09-09T11:03:57;5.70;;;2.47;;
3293;SDS011;1659;51.470;6.770;2022-09-09T11:06:31;5.03;;;2.03;;
3293;SDS011;1659;51.470;6.770;2022-09-09T11:09:02;6.33;;;2.50;;
3293;SDS011;1659;51.470;6.770;2022-09-09T11:11:32;7.03;;;2.73;;
3293;SDS011;1659;51.470;6.770;2022-09-09T11:14:03;9.13;;;2.03;;
3293;SDS011;1659;51.470;6.770;2022-09-09T11:16:40;3.37;;;2.10;;
3293;SDS011;1659;51.470;6.770;2022-09-09T11:19:14;3.93;;;2.07;;
3293;SDS011;1659;51.470;6.770;2022-09-09T11:21:46;3.77;;;2.20;;
3293;SDS011;1659;51.470;6.770;2022-09-09T11:24:15;2.80;;;1.57;;
3293;SDS011;1659;51.470;6.770;2022-09-09T11:26:47;2.90;;;1.70;;
3293;SDS011;1659;51.470;6.770;2022-09-09T11:29:22;3.87;;;1.70;;
3293;SDS011;1659;51.470;6.770;2022-09-09T11:32:08;6.83;;;2.30;;
3293;SDS011;1659;51.470;6.770;2022-09-09T11:34:50;15.33;;;2.60;;
3293;SDS011;1659;51.470;6.770;2022-09-09T11:37:27;1.80;;;1.70;;
3293;SDS011;1659;51.470;6.770;2022-09-09T11:40:20;6.50;;;2.20;;
3293;SDS011;1659;51.470;6.770;2022-09-09T11:43:00;4.93;;;2.07;;
3293;SDS011;1659;51.470;6.770;2022-09-09T11:45:29;7.07;;;2.00;;
3293;SDS011;1659;51.470;6.770;2022-09-09T11:47:59;2.27;;;1.60;;
3293;SDS011;1659;51.470;6.770;2022-09-09T11:50:28;3.30;;;1.60;;
3293;SDS011;1659;51.470;6.770;2022-09-09T11:53:04;3.40;;;1.73;;
3293;SDS011;1659;51.470;6.770;2022-09-09T11:55:47;4.60;;;1.40;;
3293;SDS011;1659;51.470;6.770;2022-09-09T11:58:15;2.83;;;1.63;;
3293;SDS011;1659;51.470;6.770;2022-09-09T12:00:44;9.47;;;1.63;;
3293;SDS011;1659;51.470;6.770;2022-09-09T12:06:09;5.60;;;1.53;;
3293;SDS011;1659;51.470;6.770;2022-09-09T12:08:41;7.20;;;2.70;;
3293;SDS011;1659;51.470;6.770;2022-09-09T12:11:09;3.70;;;2.03;;
3293;SDS011;1659;51.470;6.770;2022-09-09T12:13:36;7.23;;;2.00;;
3293;SDS011;1659;51.470;6.770;2022-09-09T12:16:03;5.70;;;2.40;;
3293;SDS011;1659;51.470;6.770;2022-09-09T12:18:32;2.90;;;2.13;;
3293;SDS011;1659;51.470;6.770;2022-09-09T12:21:03;7.70;;;1.90;;
3293;SDS011;1659;51.470;6.770;2022-09-09T12:23:36;2.00;;;1.63;;
3293;SDS011;1659;51.470;6.770;2022-09-09T12:26:16;1.83;;;1.47;;
3293;SDS011;1659;51.470;6.770;2022-09-09T12:28:53;1.90;;;1.70;;
3293;SDS011;1659;51.470;6.770;2022-09-09T12:31:29;4.27;;;1.67;;
3293;SDS011;1659;51.470;6.770;2022-09-09T12:34:09;2.40;;;1.30;;
3293;SDS011;1659;51.470;6.770;2022-09-09T12:36:39;2.20;;;1.47;;
3293;SDS011;1659;51.470;6.770;2022-09-09T12:39:10;2.57;;;1.50;;
3293;SDS011;1659;51.470;6.770;2022-09-09T12:41:50;4.40;;;2.33;;
3293;SDS011;1659;51.470;6.770;2022-09-09T12:44:21;2.83;;;1.63;;
3293;SDS011;1659;51.470;6.770;2022-09-09T12:46:48;1.93;;;1.70;;
3293;SDS011;1659;51.470;6.770;2022-09-09T12:49:24;1.77;;;1.63;;
3293;SDS011;1659;51.470;6.770;2022-09-09T12:51:57;1.90;;;1.60;;
3293;SDS011;1659;51.470;6.770;2022-09-09T12:54:24;12.10;;;2.20;;
3293;SDS011;1659;51.470;6.770;2022-09-09T12:56:51;2.23;;;2.03;;
3293;SDS011;1659;51.470;6.770;2022-09-09T12:59:22;5.93;;;1.90;;
3293;SDS011;1659;51.470;6.770;2022-09-09T13:01:57;9.33;;;4.40;;
3293;SDS011;1659;51.470;6.770;2022-09-09T13:04:24;20.47;;;7.33;;
3293;SDS011;1659;51.470;6.770;2022-09-09T13:06:51;14.80;;;5.87;;
3293;SDS011;1659;51.470;6.770;2022-09-09T13:09:19;16.93;;;5.80;;
3293;SDS011;1659;51.470;6.770;2022-09-09T13:11:46;6.10;;;3.57;;
3293;SDS011;1659;51.470;6.770;2022-09-09T13:14:16;7.00;;;3.20;;
3293;SDS011;1659;51.470;6.770;2022-09-09T13:16:54;6.20;;;2.80;;
3293;SDS011;1659;51.470;6.770;2022-09-09T13:19:22;5.03;;;2.30;;
3293;SDS011;1659;51.470;6.770;2022-09-09T13:21:52;7.67;;;3.97;;
3293;SDS011;1659;51.470;6.770;2022-09-09T13:24:26;9.43;;;3.60;;
3293;SDS011;1659;51.470;6.770;2022-09-09T13:26:56;7.13;;;3.13;;
3293;SDS011;1659;51.470;6.770;2022-09-09T13:29:23;4.47;;;3.10;;
3293;SDS011;1659;51.470;6.770;2022-09-09T13:31:50;7.27;;;3.60;;
3293;SDS011;1659;51.470;6.770;2022-09-09T13:34:28;7.73;;;4.10;;
3293;SDS011;1659;51.470;6.770;2022-09-09T13:36:57;5.37;;;3.17;;
3293;SDS011;1659;51.470;6.770;2022-09-09T13:39:29;3.60;;;2.47;;
3293;SDS011;1659;51.470;6.770;2022-09-09T13:41:56;3.63;;;2.70;;
3293;SDS011;1659;51.470;6.770;2022-09-09T13:44:24;5.37;;;2.30;;
3293;SDS011;1659;51.470;6.770;2022-09-09T13:47:00;7.53;;;3.20;;
3293;SDS011;1659;51.470;6.770;2022-09-09T13:49:28;7.73;;;2.57;;
3293;SDS011;1659;51.470;6.770;2022-09-09T13:54:46;3.07;;;2.10;;
3293;SDS011;1659;51.470;6.770;2022-09-09T13:57:15;2.60;;;1.90;;
3293;SDS011;1659;51.470;6.770;2022-09-09T13:59:43;2.87;;;2.50;;
3293;SDS011;1659;51.470;6.770;2022-09-09T14:02:10;5.17;;;2.30;;
3293;SDS011;1659;51.470;6.770;2022-09-09T14:04:36;2.50;;;2.23;;
3293;SDS011;1659;51.470;6.770;2022-09-09T14:07:03;4.47;;;3.60;;
3293;SDS011;1659;51.470;6.770;2022-09-09T14:09:29;5.50;;;3.43;;
3293;SDS011;1659;51.470;6.770;2022-09-09T14:11:57;5.80;;;2.80;;
3293;SDS011;1659;51.470;6.770;2022-09-09T14:14:25;6.70;;;3.00;;
3293;SDS011;1659;51.470;6.770;2022-09-09T14:16:51;8.93;;;2.70;;
3293;SDS011;1659;51.470;6.770;2022-09-09T14:19:19;4.60;;;2.83;;
3293;SDS011;1659;51.470;6.770;2022-09-09T14:21:45;7.03;;;2.40;;
3293;SDS011;1659;51.470;6.770;2022-09-09T14:24:12;6.17;;;2.70;;
3293;SDS011;1659;51.470;6.770;2022-09-09T14:26:39;3.80;;;2.07;;
3293;SDS011;1659;51.470;6.770;2022-09-09T14:29:07;3.07;;;1.87;;
3293;SDS011;1659;51.470;6.770;2022-09-09T14:31:33;2.17;;;1.90;;
3293;SDS011;1659;51.470;6.770;2022-09-09T14:34:00;4.40;;;1.90;;
3293;SDS011;1659;51.470;6.770;2022-09-09T14:36:27;1.80;;;1.70;;
3293;SDS011;1659;51.470;6.770;2022-09-09T14:38:53;2.10;;;1.60;;
3293;SDS011;1659;51.470;6.770;2022-09-09T14:41:20;3.83;;;1.77;;
3293;SDS011;1659;51.470;6.770;2022-09-09T14:43:47;2.30;;;1.50;;
3293;SDS011;1659;51.470;6.770;2022-09-09T14:46:16;1.80;;;1.10;;
3293;SDS011;1659;51.470;6.770;2022-09-09T14:48:44;0.83;;;0.77;;
3293;SDS011;1659;51.470;6.770;2022-09-09T14:51:14;0.93;;;0.70;;
3293;SDS011;1659;51.470;6.770;2022-09-09T14:53:43;1.23;;;0.80;;
3293;SDS011;1659;51.470;6.770;2022-09-09T14:56:10;4.93;;;1.00;;
3293;SDS011;1659;51.470;6.770;2022-09-09T14:58:38;0.97;;;0.93;;
3293;SDS011;1659;51.470;6.770;2022-09-09T15:01:05;1.33;;;1.13;;
3293;SDS011;1659;51.470;6.770;2022-09-09T15:03:35;5.90;;;1.47;;
3293;SDS011;1659;51.470;6.770;2022-09-09T15:06:05;1.53;;;1.20;;
3293;SDS011;1659;51.470;6.770;2022-09-09T15:08:33;1.53;;;1.10;;
3293;SDS011;1659;51.470;6.770;2022-09-09T15:11:00;1.53;;;1.07;;
3293;SDS011;1659;51.470;6.770;2022-09-09T15:13:27;1.63;;;1.20;;
3293;SDS011;1659;51.470;6.770;2022-09-09T15:15:53;4.10;;;2.10;;
3293;SDS011;1659;51.470;6.770;2022-09-09T15:18:20;2.23;;;1.60;;
3293;SDS011;1659;51.470;6.770;2022-09-09T15:20:48;2.97;;;1.80;;
3293;SDS011;1659;51.470;6.770;2022-09-09T15:23:15;6.33;;;2.83;;
3293;SDS011;1659;51.470;6.770;2022-09-09T15:25:50;10.13;;;5.80;;
3293;SDS011;1659;51.470;6.770;2022-09-09T15:28:18;9.63;;;5.77;;
3293;SDS011;1659;51.470;6.770;2022-09-09T15:30:46;10.77;;;5.47;;
3293;SDS011;1659;51.470;6.770;2022-09-09T15:33:13;12.80;;;5.67;;
3293;SDS011;1659;51.470;6.770;2022-09-09T15:35:40;9.27;;;4.47;;
3293;SDS011;1659;51.470;6.770;2022-09-09T15:38:08;5.97;;;3.73;;
3293;SDS011;1659;51.470;6.770;2022-09-09T15:40:35;5.33;;;3.50;;
3293;SDS011;1659;51.470;6.770;2022-09-09T15:43:01;4.20;;;2.80;;